createdAt,value
2023-01-26T00:03:38.911Z,101972.53
2023-01-26T00:08:43.178Z,101965.09
2023-01-26T00:13:46.048Z,101958.25
2023-01-26T00:18:49.579Z,101954.03
2023-01-26T00:23:52.640Z,101948.56
2023-01-26T00:28:55.442Z,101927.53
2023-01-26T00:33:59.291Z,101925.00
2023-01-26T00:39:01.380Z,101927.28
2023-01-26T00:44:03.430Z,101924.16
2023-01-26T00:49:07.019Z,101911.16
2023-01-26T00:54:09.228Z,101912.66
2023-01-26T00:59:11.898Z,101911.03
2023-01-26T01:04:15.601Z,101902.34
2023-01-26T01:09:18.236Z,101902.94
2023-01-26T01:14:20.404Z,101904.47
2023-01-26T01:19:23.872Z,101895.50
2023-01-26T01:24:25.960Z,101894.03
2023-01-26T01:29:28.604Z,101889.56
2023-01-26T01:34:32.212Z,101874.31
2023-01-26T01:39:34.482Z,101873.72
2023-01-26T01:44:37.330Z,101869.56
2023-01-26T01:49:46.212Z,101877.00
2023-01-26T01:54:54.626Z,101870.59
2023-01-26T02:00:01.180Z,101873.28
2023-01-26T02:05:18.330Z,101864.03
2023-01-26T02:10:21.171Z,101859.41
2023-01-26T02:15:23.113Z,101847.47
2023-01-26T02:20:32.839Z,101840.59
2023-01-26T02:25:42.994Z,101827.03
2023-01-26T02:30:46.941Z,101829.13
2023-01-26T02:35:49.116Z,101824.44
2023-01-26T02:40:55.327Z,101808.25
2023-01-26T02:45:59.300Z,101806.03
2023-01-26T02:51:01.589Z,101804.91
2023-01-26T02:56:03.887Z,101809.28
2023-01-26T03:01:07.240Z,101807.97
2023-01-26T03:06:10.236Z,101808.94
2023-01-26T03:11:12.440Z,101809.59
2023-01-26T03:16:16.018Z,101806.03
2023-01-26T03:21:18.277Z,101807.59
2023-01-26T03:26:20.329Z,101807.22
2023-01-26T03:31:24.133Z,101800.03
2023-01-26T03:36:26.243Z,101802.16
2023-01-26T03:41:28.654Z,101797.31
2023-01-26T03:46:32.175Z,101787.00
2023-01-26T03:51:34.378Z,101790.44
2023-01-26T03:56:36.530Z,101800.22
2023-01-26T04:01:41.331Z,101790.22
2023-01-26T04:06:45.320Z,101782.78
2023-01-26T04:11:47.605Z,101786.50
2023-01-26T04:16:51.150Z,101789.34
2023-01-26T04:21:53.364Z,101782.25
2023-01-26T04:26:55.570Z,101767.13
2023-01-26T04:31:59.403Z,101772.19
2023-01-26T04:37:01.548Z,101765.50
2023-01-26T04:42:03.757Z,101767.75
2023-01-26T04:47:07.359Z,101772.13
2023-01-26T04:52:09.457Z,101764.81
2023-01-26T04:57:11.665Z,101763.91
2023-01-26T05:02:19.413Z,101766.53
2023-01-26T05:07:21.900Z,101756.19
2023-01-26T05:12:23.676Z,101744.78
2023-01-26T05:17:26.754Z,101751.34
2023-01-26T05:22:28.853Z,101752.53
2023-01-26T05:27:30.833Z,101754.28
2023-01-26T05:32:42.505Z,101743.56
2023-01-26T05:37:44.700Z,101743.41
2023-01-26T05:42:46.453Z,101743.28
2023-01-26T05:47:49.920Z,101752.88
2023-01-26T05:52:51.945Z,101755.47
2023-01-26T05:57:53.976Z,101755.03
2023-01-26T06:02:57.513Z,101763.25
2023-01-26T06:07:59.202Z,101763.03
2023-01-26T06:13:05.839Z,101760.03
2023-01-26T06:18:09.102Z,101762.03
2023-01-26T06:23:11.275Z,101762.91
2023-01-26T06:28:12.969Z,101768.59
2023-01-26T06:33:16.273Z,101760.44
2023-01-26T06:38:17.970Z,101768.00
2023-01-26T06:43:19.651Z,101757.72
2023-01-26T06:48:22.851Z,101762.66
2023-01-26T06:53:32.983Z,101765.56
2023-01-26T06:58:34.804Z,101766.31
2023-01-26T07:03:38.169Z,101766.22
2023-01-26T07:08:40.554Z,101760.25
2023-01-26T07:13:42.248Z,101759.75
2023-01-26T07:18:45.529Z,101757.63
2023-01-26T07:23:47.333Z,101758.06
2023-01-26T07:28:49.043Z,101755.69
2023-01-26T07:33:52.514Z,101766.34
2023-01-26T07:38:54.492Z,101760.09
2023-01-26T07:43:56.232Z,101774.25
2023-01-26T07:48:59.388Z,101769.19
2023-01-26T07:54:01.436Z,101780.19
2023-01-26T07:59:03.983Z,101778.41
2023-01-26T08:04:07.624Z,101779.19
2023-01-26T08:09:10.106Z,101782.59
2023-01-26T08:14:12.147Z,101782.59
2023-01-26T08:19:15.767Z,101789.56
2023-01-26T08:24:17.860Z,101789.72
2023-01-26T08:29:20.063Z,101794.47
2023-01-26T08:34:23.808Z,101792.53
2023-01-26T08:39:26.631Z,101788.50
2023-01-26T08:44:28.370Z,101791.09
2023-01-26T08:49:31.517Z,101789.44
2023-01-26T08:54:33.576Z,101781.66
2023-01-26T08:59:35.449Z,101781.53
2023-01-26T09:04:39.075Z,101782.25
2023-01-26T09:09:41.322Z,101792.22
2023-01-26T09:14:43.454Z,101801.41
2023-01-26T09:19:47.152Z,101798.03
2023-01-26T09:24:49.464Z,101799.50
2023-01-26T09:29:51.696Z,101798.22
2023-01-26T09:34:55.461Z,101794.06
2023-01-26T09:39:57.519Z,101794.88
2023-01-26T09:45:10.020Z,101792.03
2023-01-26T09:50:19.112Z,101791.38
2023-01-26T09:55:23.341Z,101797.25
2023-01-26T10:00:31.038Z,101807.59
2023-01-26T10:05:41.884Z,101792.03
2023-01-26T10:10:48.473Z,101789.94
2023-01-26T10:15:54.352Z,101792.34
2023-01-26T10:20:59.967Z,101781.78
2023-01-26T10:26:12.078Z,101778.28
2023-01-26T10:31:18.699Z,101765.91
2023-01-26T10:36:23.043Z,101756.44
2023-01-26T10:41:29.597Z,101743.47
2023-01-26T10:46:34.281Z,101740.00
2023-01-26T10:51:39.802Z,101725.34
2023-01-26T10:56:45.438Z,101726.59
2023-01-26T11:01:55.138Z,101722.81
2023-01-26T11:07:23.759Z,101723.84
2023-01-26T11:12:25.823Z,101726.53
2023-01-26T11:17:35.118Z,101727.38
2023-01-26T11:22:47.065Z,101714.16
2023-01-26T11:27:59.684Z,101714.34
2023-01-26T11:33:07.311Z,101711.97
2023-01-26T11:38:25.895Z,101707.00
2023-01-26T11:43:45.787Z,101701.03
2023-01-26T11:49:00.777Z,101699.72
2023-01-26T11:54:37.483Z,101691.91
2023-01-26T11:59:44.441Z,101675.28
2023-01-26T12:04:46.722Z,101682.06
2023-01-26T12:09:50.727Z,101664.13
2023-01-26T12:14:57.726Z,101660.16
2023-01-26T12:20:05.931Z,101644.25
2023-01-26T12:25:23.352Z,101643.91
2023-01-26T12:30:34.416Z,101638.00
2023-01-26T12:35:52.903Z,101637.88
2023-01-26T12:41:06.829Z,101629.63
2023-01-26T12:46:11.524Z,101631.25
2023-01-26T12:51:20.743Z,101635.13
2023-01-26T12:56:29.405Z,101628.88
2023-01-26T13:01:40.275Z,101623.66
2023-01-26T13:06:42.860Z,101628.00
2023-01-26T13:11:52.697Z,101627.31
2023-01-26T13:16:55.354Z,101626.44
2023-01-26T13:21:57.612Z,101625.41
2023-01-26T13:27:01.107Z,101636.34
2023-01-26T13:32:36.735Z,101644.47
2023-01-26T13:37:49.586Z,101646.69
2023-01-26T13:42:58.991Z,101656.16
2023-01-26T13:48:05.226Z,101658.25
2023-01-26T13:53:28.812Z,101652.34
2023-01-26T13:58:32.646Z,101663.00
2023-01-26T14:03:34.854Z,101669.03
2023-01-26T14:08:38.153Z,101664.53
2023-01-26T14:13:41.753Z,101665.63
2023-01-26T14:18:43.906Z,101666.59
2023-01-26T14:23:46.201Z,101664.28
2023-01-26T14:28:49.911Z,101658.63
2023-01-26T14:33:53.674Z,101657.00
2023-01-26T14:38:57.188Z,101665.19
2023-01-26T14:44:01.341Z,101663.72
2023-01-26T14:49:08.494Z,101667.81
2023-01-26T14:54:19.159Z,101668.19
2023-01-26T14:59:25.244Z,101669.91
2023-01-26T15:04:36.691Z,101663.75
2023-01-26T15:09:38.403Z,101661.78
2023-01-26T15:14:50.590Z,101666.03
2023-01-26T15:19:53.769Z,101668.34
2023-01-26T15:25:02.099Z,101677.19
2023-01-26T15:30:06.810Z,101683.38
2023-01-26T15:35:20.254Z,101667.28
2023-01-26T15:40:21.925Z,101672.44
2023-01-26T15:45:27.568Z,101689.78
2023-01-26T15:50:29.572Z,101682.53
2023-01-26T15:55:33.366Z,101694.00
2023-01-26T16:00:36.953Z,101692.38
2023-01-26T16:05:39.143Z,101688.28
2023-01-26T16:10:40.964Z,101691.91
2023-01-26T16:15:46.433Z,101697.84
2023-01-26T16:20:49.561Z,101689.16
2023-01-26T16:25:52.205Z,101709.84
2023-01-26T16:31:01.371Z,101701.75
2023-01-26T16:36:04.891Z,101691.63
2023-01-26T16:41:12.517Z,101685.72
2023-01-26T16:46:16.432Z,101692.94
2023-01-26T16:51:21.201Z,101686.72
2023-01-26T16:56:24.530Z,101691.44
2023-01-26T17:01:32.908Z,101687.16
2023-01-26T17:06:34.695Z,101683.03
2023-01-26T17:11:36.594Z,101685.75
2023-01-26T17:16:40.049Z,101680.25
2023-01-26T17:21:42.098Z,101674.22
2023-01-26T17:26:44.574Z,101676.69
2023-01-26T17:31:47.786Z,101676.91
2023-01-26T17:36:49.671Z,101683.00
2023-01-26T17:41:52.206Z,101685.00
2023-01-26T17:46:55.857Z,101692.38
2023-01-26T17:51:57.868Z,101685.47
2023-01-26T17:56:59.931Z,101703.56
2023-01-26T18:02:03.270Z,101705.91
2023-01-26T18:07:05.075Z,101705.59
2023-01-26T18:12:07.391Z,101708.69
2023-01-26T18:17:10.759Z,101705.56
2023-01-26T18:22:13.138Z,101718.22
2023-01-26T18:27:15.371Z,101719.88
2023-01-26T18:32:19.150Z,101714.38
2023-01-26T18:37:21.231Z,101709.19
2023-01-26T18:42:24.766Z,101710.00
2023-01-26T18:47:29.334Z,101716.53
2023-01-26T18:52:31.430Z,101699.25
2023-01-26T18:57:36.685Z,101719.00
2023-01-26T19:02:44.869Z,101714.09
2023-01-26T19:07:47.932Z,101721.41
2023-01-26T19:12:50.440Z,101726.94
2023-01-26T19:17:53.856Z,101727.09
2023-01-26T19:22:56.134Z,101724.19
2023-01-26T19:27:57.991Z,101722.03
2023-01-26T19:33:01.707Z,101720.94
2023-01-26T19:38:04.212Z,101717.75
2023-01-26T19:43:06.037Z,101714.38
2023-01-26T19:48:09.550Z,101715.63
2023-01-26T19:53:11.328Z,101720.25
2023-01-26T19:58:13.731Z,101718.63
2023-01-26T20:03:21.497Z,101719.03
2023-01-26T20:08:24.150Z,101715.06
2023-01-26T20:13:25.848Z,101715.44
2023-01-26T20:18:29.571Z,101710.31
2023-01-26T20:23:31.935Z,101703.00
2023-01-26T20:28:35.112Z,101718.94
2023-01-26T20:33:39.285Z,101728.28
2023-01-26T20:38:41.401Z,101730.19
2023-01-26T20:43:58.048Z,101721.19
2023-01-26T20:49:04.388Z,101733.25
2023-01-26T20:54:07.658Z,101729.91
2023-01-26T20:59:11.106Z,101729.03
2023-01-26T21:04:14.264Z,101724.59
2023-01-26T21:09:16.390Z,101724.59
2023-01-26T21:14:18.985Z,101736.25
2023-01-26T21:19:22.794Z,101725.84
2023-01-26T21:24:25.320Z,101725.78
2023-01-26T21:29:27.149Z,101727.19
2023-01-26T21:34:30.708Z,101722.34
2023-01-26T21:39:32.787Z,101721.06
2023-01-26T21:44:34.584Z,101717.78
2023-01-26T21:49:37.838Z,101710.34
2023-01-26T21:54:40.204Z,101706.91
2023-01-26T21:59:42.254Z,101710.06
2023-01-26T22:04:45.919Z,101716.41
2023-01-26T22:09:47.607Z,101722.25
2023-01-26T22:14:50.978Z,101717.19
2023-01-26T22:19:54.077Z,101729.34
2023-01-26T22:24:56.181Z,101719.72
2023-01-26T22:29:57.937Z,101725.22
2023-01-26T22:35:01.176Z,101722.50
2023-01-26T22:40:03.211Z,101721.53
2023-01-26T22:45:06.161Z,101724.50
2023-01-26T22:50:11.434Z,101733.44
2023-01-26T22:55:13.443Z,101720.03
2023-01-26T23:00:16.126Z,101723.78
2023-01-26T23:05:19.636Z,101724.94
2023-01-26T23:10:22.012Z,101711.97
2023-01-26T23:15:24.315Z,101714.06
2023-01-26T23:20:27.356Z,101713.63
2023-01-26T23:25:29.601Z,101718.56
2023-01-26T23:30:32.732Z,101716.44
2023-01-26T23:35:36.882Z,101717.00
2023-01-26T23:40:39.459Z,101730.03
2023-01-26T23:45:43.402Z,101723.47
2023-01-26T23:50:47.155Z,101713.91
2023-01-26T23:55:49.357Z,101712.69
